sensor_id;sensor_type;location;lat;lon;timestamp;P1;durP1;ratioP1;P2;durP2;ratioP2
2257;SDS011;1136;51.574;7.706;2024-01-15T00:01:24;42.43;;;24.93;;
2257;SDS011;1136;51.574;7.706;2024-01-15T00:04:29;45.23;;;25.00;;
2257;SDS011;1136;51.574;7.706;2024-01-15T00:07:33;35.27;;;22.80;;
2257;SDS011;1136;51.574;7.706;2024-01-15T00:10:38;45.10;;;24.03;;
2257;SDS011;1136;51.574;7.706;2024-01-15T00:13:44;37.13;;;24.00;;
2257;SDS011;1136;51.574;7.706;2024-01-15T00:16:48;38.63;;;22.90;;
2257;SDS011;1136;51.574;7.706;2024-01-15T00:19:58;41.30;;;24.20;;
2257;SDS011;1136;51.574;7.706;2024-01-15T00:23:02;43.07;;;24.47;;
2257;SDS011;1136;51.574;7.706;2024-01-15T00:26:10;48.30;;;25.73;;
2257;SDS011;1136;51.574;7.706;2024-01-15T00:29:14;42.30;;;25.20;;
2257;SDS011;1136;51.574;7.706;2024-01-15T00:32:18;40.93;;;23.80;;
2257;SDS011;1136;51.574;7.706;2024-01-15T00:35:23;39.37;;;23.53;;
2257;SDS011;1136;51.574;7.706;2024-01-15T00:38:28;43.33;;;25.13;;
2257;SDS011;1136;51.574;7.706;2024-01-15T00:41:31;45.37;;;25.77;;
2257;SDS011;1136;51.574;7.706;2024-01-15T00:44:36;43.80;;;25.00;;
2257;SDS011;1136;51.574;7.706;2024-01-15T00:47:40;47.83;;;25.47;;
2257;SDS011;1136;51.574;7.706;2024-01-15T00:50:45;47.60;;;26.53;;
2257;SDS011;1136;51.574;7.706;2024-01-15T00:53:49;43.60;;;24.50;;
2257;SDS011;1136;51.574;7.706;2024-01-15T00:56:53;52.93;;;26.73;;
2257;SDS011;1136;51.574;7.706;2024-01-15T00:59:58;51.43;;;26.37;;
2257;SDS011;1136;51.574;7.706;2024-01-15T01:03:06;45.03;;;25.40;;
2257;SDS011;1136;51.574;7.706;2024-01-15T01:06:11;51.23;;;27.90;;
2257;SDS011;1136;51.574;7.706;2024-01-15T01:09:15;49.00;;;24.63;;
2257;SDS011;1136;51.574;7.706;2024-01-15T01:12:19;46.97;;;26.90;;
2257;SDS011;1136;51.574;7.706;2024-01-15T01:15:23;51.00;;;26.30;;
2257;SDS011;1136;51.574;7.706;2024-01-15T01:18:28;47.73;;;26.40;;
2257;SDS011;1136;51.574;7.706;2024-01-15T01:21:33;45.30;;;26.60;;
2257;SDS011;1136;51.574;7.706;2024-01-15T01:24:37;47.40;;;25.60;;
2257;SDS011;1136;51.574;7.706;2024-01-15T01:27:41;44.90;;;25.63;;
2257;SDS011;1136;51.574;7.706;2024-01-15T01:30:45;54.30;;;27.40;;
2257;SDS011;1136;51.574;7.706;2024-01-15T01:33:50;41.70;;;25.13;;
2257;SDS011;1136;51.574;7.706;2024-01-15T01:36:54;46.10;;;25.90;;
2257;SDS011;1136;51.574;7.706;2024-01-15T01:39:59;45.23;;;25.10;;
2257;SDS011;1136;51.574;7.706;2024-01-15T01:43:04;51.27;;;26.47;;
2257;SDS011;1136;51.574;7.706;2024-01-15T01:46:08;55.10;;;26.97;;
2257;SDS011;1136;51.574;7.706;2024-01-15T01:49:13;46.97;;;25.87;;
2257;SDS011;1136;51.574;7.706;2024-01-15T01:52:17;40.87;;;25.47;;
2257;SDS011;1136;51.574;7.706;2024-01-15T01:55:21;44.60;;;25.23;;
2257;SDS011;1136;51.574;7.706;2024-01-15T01:58:28;42.10;;;22.57;;
2257;SDS011;1136;51.574;7.706;2024-01-15T02:01:33;47.30;;;24.23;;
2257;SDS011;1136;51.574;7.706;2024-01-15T02:04:38;42.50;;;25.67;;
2257;SDS011;1136;51.574;7.706;2024-01-15T02:07:42;43.10;;;24.10;;
2257;SDS011;1136;51.574;7.706;2024-01-15T02:10:48;39.73;;;23.67;;
2257;SDS011;1136;51.574;7.706;2024-01-15T02:13:52;39.43;;;22.67;;
2257;SDS011;1136;51.574;7.706;2024-01-15T02:16:56;49.43;;;24.03;;
2257;SDS011;1136;51.574;7.706;2024-01-15T02:20:01;42.40;;;23.10;;
2257;SDS011;1136;51.574;7.706;2024-01-15T02:23:09;38.40;;;22.77;;
2257;SDS011;1136;51.574;7.706;2024-01-15T02:26:14;39.60;;;22.17;;
2257;SDS011;1136;51.574;7.706;2024-01-15T02:29:20;26.70;;;16.70;;
2257;SDS011;1136;51.574;7.706;2024-01-15T02:32:27;41.23;;;21.47;;
2257;SDS011;1136;51.574;7.706;2024-01-15T02:35:31;34.07;;;19.37;;
2257;SDS011;1136;51.574;7.706;2024-01-15T02:38:36;37.80;;;22.57;;
2257;SDS011;1136;51.574;7.706;2024-01-15T02:41:44;31.37;;;19.80;;
2257;SDS011;1136;51.574;7.706;2024-01-15T02:44:48;31.70;;;18.70;;
2257;SDS011;1136;51.574;7.706;2024-01-15T02:47:52;27.53;;;16.87;;
2257;SDS011;1136;51.574;7.706;2024-01-15T02:50:57;39.40;;;20.50;;
2257;SDS011;1136;51.574;7.706;2024-01-15T02:54:01;30.70;;;19.67;;
2257;SDS011;1136;51.574;7.706;2024-01-15T02:57:05;34.40;;;19.40;;
2257;SDS011;1136;51.574;7.706;2024-01-15T03:00:09;30.70;;;18.40;;
2257;SDS011;1136;51.574;7.706;2024-01-15T03:03:15;28.53;;;18.57;;
2257;SDS011;1136;51.574;7.706;2024-01-15T03:06:20;30.30;;;17.80;;
2257;SDS011;1136;51.574;7.706;2024-01-15T03:09:24;37.23;;;18.10;;
2257;SDS011;1136;51.574;7.706;2024-01-15T03:12:28;29.33;;;17.70;;
2257;SDS011;1136;51.574;7.706;2024-01-15T03:15:32;30.93;;;17.17;;
2257;SDS011;1136;51.574;7.706;2024-01-15T03:18:37;33.87;;;19.90;;
2257;SDS011;1136;51.574;7.706;2024-01-15T03:21:41;29.17;;;18.67;;
2257;SDS011;1136;51.574;7.706;2024-01-15T03:24:45;33.27;;;16.93;;
2257;SDS011;1136;51.574;7.706;2024-01-15T03:27:50;37.03;;;17.90;;
2257;SDS011;1136;51.574;7.706;2024-01-15T03:30:54;29.83;;;18.40;;
2257;SDS011;1136;51.574;7.706;2024-01-15T03:33:59;32.03;;;18.60;;
2257;SDS011;1136;51.574;7.706;2024-01-15T03:37:03;27.17;;;16.10;;
2257;SDS011;1136;51.574;7.706;2024-01-15T03:40:07;33.07;;;17.90;;
2257;SDS011;1136;51.574;7.706;2024-01-15T03:43:12;27.90;;;16.60;;
2257;SDS011;1136;51.574;7.706;2024-01-15T03:46:16;25.83;;;16.97;;
2257;SDS011;1136;51.574;7.706;2024-01-15T03:49:20;26.63;;;16.33;;
2257;SDS011;1136;51.574;7.706;2024-01-15T03:52:24;30.63;;;18.17;;
2257;SDS011;1136;51.574;7.706;2024-01-15T03:55:28;32.13;;;16.60;;
2257;SDS011;1136;51.574;7.706;2024-01-15T03:58:33;21.43;;;14.00;;
2257;SDS011;1136;51.574;7.706;2024-01-15T04:01:37;34.10;;;17.07;;
2257;SDS011;1136;51.574;7.706;2024-01-15T04:04:42;27.80;;;16.17;;
2257;SDS011;1136;51.574;7.706;2024-01-15T04:07:47;28.83;;;16.40;;
2257;SDS011;1136;51.574;7.706;2024-01-15T04:10:53;25.57;;;15.53;;
2257;SDS011;1136;51.574;7.706;2024-01-15T04:13:57;29.67;;;16.43;;
2257;SDS011;1136;51.574;7.706;2024-01-15T04:17:01;25.73;;;16.70;;
2257;SDS011;1136;51.574;7.706;2024-01-15T04:20:06;21.30;;;14.53;;
2257;SDS011;1136;51.574;7.706;2024-01-15T04:23:11;26.97;;;15.30;;
2257;SDS011;1136;51.574;7.706;2024-01-15T04:26:15;29.60;;;16.37;;
2257;SDS011;1136;51.574;7.706;2024-01-15T04:29:18;25.27;;;14.10;;
2257;SDS011;1136;51.574;7.706;2024-01-15T04:32:23;22.13;;;15.63;;
2257;SDS011;1136;51.574;7.706;2024-01-15T04:35:27;26.10;;;15.40;;
2257;SDS011;1136;51.574;7.706;2024-01-15T04:38:31;23.83;;;15.27;;
2257;SDS011;1136;51.574;7.706;2024-01-15T04:41:36;26.63;;;15.63;;
2257;SDS011;1136;51.574;7.706;2024-01-15T04:44:40;34.23;;;16.97;;
2257;SDS011;1136;51.574;7.706;2024-01-15T04:47:45;26.63;;;15.53;;
2257;SDS011;1136;51.574;7.706;2024-01-15T04:50:50;20.33;;;14.40;;
2257;SDS011;1136;51.574;7.706;2024-01-15T04:53:54;20.30;;;14.90;;
2257;SDS011;1136;51.574;7.706;2024-01-15T04:56:58;21.00;;;14.77;;
2257;SDS011;1136;51.574;7.706;2024-01-15T05:00:05;24.43;;;16.40;;
2257;SDS011;1136;51.574;7.706;2024-01-15T05:03:10;29.30;;;15.10;;
2257;SDS011;1136;51.574;7.706;2024-01-15T05:06:14;24.90;;;15.57;;
2257;SDS011;1136;51.574;7.706;2024-01-15T05:09:19;22.53;;;15.40;;
2257;SDS011;1136;51.574;7.706;2024-01-15T05:12:23;21.60;;;13.60;;
2257;SDS011;1136;51.574;7.706;2024-01-15T05:15:27;22.00;;;12.90;;
2257;SDS011;1136;51.574;7.706;2024-01-15T05:18:31;19.47;;;14.50;;
2257;SDS011;1136;51.574;7.706;2024-01-15T05:21:36;20.07;;;13.70;;
2257;SDS011;1136;51.574;7.706;2024-01-15T05:24:40;21.07;;;13.67;;
2257;SDS011;1136;51.574;7.706;2024-01-15T05:27:44;22.13;;;14.40;;
2257;SDS011;1136;51.574;7.706;2024-01-15T05:30:48;22.27;;;14.17;;
2257;SDS011;1136;51.574;7.706;2024-01-15T05:33:54;22.13;;;15.43;;
2257;SDS011;1136;51.574;7.706;2024-01-15T05:36:59;21.70;;;14.57;;
2257;SDS011;1136;51.574;7.706;2024-01-15T05:40:04;20.00;;;14.20;;
2257;SDS011;1136;51.574;7.706;2024-01-15T05:43:09;21.93;;;13.67;;
2257;SDS011;1136;51.574;7.706;2024-01-15T05:46:13;20.37;;;13.53;;
2257;SDS011;1136;51.574;7.706;2024-01-15T05:49:19;26.10;;;14.27;;
2257;SDS011;1136;51.574;7.706;2024-01-15T05:52:25;22.67;;;13.97;;
2257;SDS011;1136;51.574;7.706;2024-01-15T05:55:29;27.37;;;14.20;;
2257;SDS011;1136;51.574;7.706;2024-01-15T05:58:34;28.33;;;14.57;;
2257;SDS011;1136;51.574;7.706;2024-01-15T06:01:38;22.57;;;14.00;;
2257;SDS011;1136;51.574;7.706;2024-01-15T06:04:42;22.37;;;14.03;;
2257;SDS011;1136;51.574;7.706;2024-01-15T06:07:47;23.70;;;14.73;;
2257;SDS011;1136;51.574;7.706;2024-01-15T06:10:52;23.70;;;14.23;;
2257;SDS011;1136;51.574;7.706;2024-01-15T06:13:56;30.57;;;15.20;;
2257;SDS011;1136;51.574;7.706;2024-01-15T06:17:00;22.13;;;14.70;;
2257;SDS011;1136;51.574;7.706;2024-01-15T06:20:05;22.30;;;14.90;;
2257;SDS011;1136;51.574;7.706;2024-01-15T06:23:09;21.50;;;14.20;;
2257;SDS011;1136;51.574;7.706;2024-01-15T06:26:13;21.97;;;14.10;;
2257;SDS011;1136;51.574;7.706;2024-01-15T06:29:18;23.13;;;14.40;;
2257;SDS011;1136;51.574;7.706;2024-01-15T06:32:23;25.57;;;14.83;;
2257;SDS011;1136;51.574;7.706;2024-01-15T06:35:27;26.33;;;16.70;;
2257;SDS011;1136;51.574;7.706;2024-01-15T06:38:31;27.70;;;15.93;;
2257;SDS011;1136;51.574;7.706;2024-01-15T06:41:35;21.20;;;13.73;;
2257;SDS011;1136;51.574;7.706;2024-01-15T06:44:45;30.40;;;16.90;;
2257;SDS011;1136;51.574;7.706;2024-01-15T06:47:49;17.17;;;12.67;;
2257;SDS011;1136;51.574;7.706;2024-01-15T06:50:53;23.50;;;14.00;;
2257;SDS011;1136;51.574;7.706;2024-01-15T06:53:57;17.60;;;13.60;;
2257;SDS011;1136;51.574;7.706;2024-01-15T06:57:05;23.73;;;14.80;;
2257;SDS011;1136;51.574;7.706;2024-01-15T07:00:10;24.27;;;16.08;;
2257;SDS011;1136;51.574;7.706;2024-01-15T07:03:18;19.50;;;14.77;;
2257;SDS011;1136;51.574;7.706;2024-01-15T07:06:23;25.83;;;15.50;;
2257;SDS011;1136;51.574;7.706;2024-01-15T07:09:27;24.93;;;14.80;;
2257;SDS011;1136;51.574;7.706;2024-01-15T07:12:31;25.83;;;14.37;;
2257;SDS011;1136;51.574;7.706;2024-01-15T07:15:36;21.17;;;14.50;;
2257;SDS011;1136;51.574;7.706;2024-01-15T07:18:41;26.70;;;15.27;;
2257;SDS011;1136;51.574;7.706;2024-01-15T07:21:45;26.40;;;15.70;;
2257;SDS011;1136;51.574;7.706;2024-01-15T07:24:49;21.57;;;14.50;;
2257;SDS011;1136;51.574;7.706;2024-01-15T07:27:54;23.83;;;14.37;;
2257;SDS011;1136;51.574;7.706;2024-01-15T07:30:58;24.40;;;15.07;;
2257;SDS011;1136;51.574;7.706;2024-01-15T07:34:05;21.40;;;14.30;;
2257;SDS011;1136;51.574;7.706;2024-01-15T07:37:09;23.60;;;13.70;;
2257;SDS011;1136;51.574;7.706;2024-01-15T07:40:14;21.87;;;14.27;;
2257;SDS011;1136;51.574;7.706;2024-01-15T07:43:18;23.10;;;14.77;;
2257;SDS011;1136;51.574;7.706;2024-01-15T07:46:23;28.20;;;14.90;;
2257;SDS011;1136;51.574;7.706;2024-01-15T07:49:28;26.93;;;15.47;;
2257;SDS011;1136;51.574;7.706;2024-01-15T07:52:33;22.40;;;14.60;;
2257;SDS011;1136;51.574;7.706;2024-01-15T07:55:37;29.27;;;17.30;;
2257;SDS011;1136;51.574;7.706;2024-01-15T07:58:42;22.30;;;15.20;;
2257;SDS011;1136;51.574;7.706;2024-01-15T08:01:46;23.00;;;14.90;;
2257;SDS011;1136;51.574;7.706;2024-01-15T08:04:51;28.40;;;16.97;;
2257;SDS011;1136;51.574;7.706;2024-01-15T08:07:55;24.77;;;15.10;;
2257;SDS011;1136;51.574;7.706;2024-01-15T08:11:02;24.03;;;15.23;;
2257;SDS011;1136;51.574;7.706;2024-01-15T08:14:06;22.83;;;15.67;;
2257;SDS011;1136;51.574;7.706;2024-01-15T08:17:10;23.27;;;14.93;;
2257;SDS011;1136;51.574;7.706;2024-01-15T08:20:15;21.60;;;14.63;;
2257;SDS011;1136;51.574;7.706;2024-01-15T08:23:21;26.23;;;15.20;;
2257;SDS011;1136;51.574;7.706;2024-01-15T08:26:25;23.30;;;15.13;;
2257;SDS011;1136;51.574;7.706;2024-01-15T08:29:29;22.53;;;13.97;;
2257;SDS011;1136;51.574;7.706;2024-01-15T08:32:37;21.97;;;14.27;;
2257;SDS011;1136;51.574;7.706;2024-01-15T08:35:44;23.70;;;15.90;;
2257;SDS011;1136;51.574;7.706;2024-01-15T08:38:49;18.83;;;13.13;;
2257;SDS011;1136;51.574;7.706;2024-01-15T08:41:53;22.27;;;15.00;;
2257;SDS011;1136;51.574;7.706;2024-01-15T08:44:58;19.20;;;12.93;;
2257;SDS011;1136;51.574;7.706;2024-01-15T08:48:02;18.07;;;13.10;;
2257;SDS011;1136;51.574;7.706;2024-01-15T08:51:07;22.20;;;13.27;;
2257;SDS011;1136;51.574;7.706;2024-01-15T08:54:12;17.33;;;13.50;;
2257;SDS011;1136;51.574;7.706;2024-01-15T08:57:16;20.80;;;14.10;;
2257;SDS011;1136;51.574;7.706;2024-01-15T09:00:20;22.97;;;13.40;;
2257;SDS011;1136;51.574;7.706;2024-01-15T09:03:27;23.00;;;14.77;;
2257;SDS011;1136;51.574;7.706;2024-01-15T09:06:31;17.63;;;11.50;;
2257;SDS011;1136;51.574;7.706;2024-01-15T09:09:36;17.60;;;12.13;;
2257;SDS011;1136;51.574;7.706;2024-01-15T09:12:40;15.97;;;12.47;;
2257;SDS011;1136;51.574;7.706;2024-01-15T09:15:44;15.10;;;10.17;;
2257;SDS011;1136;51.574;7.706;2024-01-15T09:18:49;19.30;;;11.37;;
2257;SDS011;1136;51.574;7.706;2024-01-15T09:21:53;13.47;;;10.10;;
2257;SDS011;1136;51.574;7.706;2024-01-15T09:24:57;10.43;;;8.73;;
2257;SDS011;1136;51.574;7.706;2024-01-15T09:28:02;12.50;;;8.97;;
2257;SDS011;1136;51.574;7.706;2024-01-15T09:31:07;11.57;;;8.90;;
2257;SDS011;1136;51.574;7.706;2024-01-15T09:34:12;15.30;;;8.53;;
2257;SDS011;1136;51.574;7.706;2024-01-15T09:37:22;12.37;;;10.20;;
2257;SDS011;1136;51.574;7.706;2024-01-15T09:40:47;19.33;;;12.00;;
2257;SDS011;1136;51.574;7.706;2024-01-15T09:43:51;14.17;;;10.37;;
2257;SDS011;1136;51.574;7.706;2024-01-15T09:46:56;15.07;;;11.00;;
2257;SDS011;1136;51.574;7.706;2024-01-15T09:50:01;19.07;;;12.57;;
2257;SDS011;1136;51.574;7.706;2024-01-15T09:53:07;17.77;;;12.80;;
2257;SDS011;1136;51.574;7.706;2024-01-15T09:56:15;21.77;;;12.93;;
2257;SDS011;1136;51.574;7.706;2024-01-15T09:59:20;19.40;;;12.47;;
2257;SDS011;1136;51.574;7.706;2024-01-15T10:02:26;21.60;;;13.70;;
2257;SDS011;1136;51.574;7.706;2024-01-15T10:05:30;18.70;;;12.90;;
2257;SDS011;1136;51.574;7.706;2024-01-15T10:08:36;18.97;;;12.80;;
2257;SDS011;1136;51.574;7.706;2024-01-15T10:11:44;19.53;;;12.93;;
2257;SDS011;1136;51.574;7.706;2024-01-15T10:14:50;17.93;;;11.73;;
2257;SDS011;1136;51.574;7.706;2024-01-15T10:17:54;18.50;;;13.00;;
2257;SDS011;1136;51.574;7.706;2024-01-15T10:20:59;16.33;;;11.83;;
2257;SDS011;1136;51.574;7.706;2024-01-15T10:24:04;16.17;;;11.80;;
2257;SDS011;1136;51.574;7.706;2024-01-15T10:27:09;13.27;;;10.27;;
2257;SDS011;1136;51.574;7.706;2024-01-15T10:30:13;17.03;;;12.30;;
2257;SDS011;1136;51.574;7.706;2024-01-15T10:33:21;23.27;;;10.97;;
2257;SDS011;1136;51.574;7.706;2024-01-15T10:36:29;12.07;;;9.00;;
2257;SDS011;1136;51.574;7.706;2024-01-15T10:39:37;11.60;;;8.77;;
2257;SDS011;1136;51.574;7.706;2024-01-15T10:42:42;11.30;;;9.13;;
2257;SDS011;1136;51.574;7.706;2024-01-15T10:45:50;11.57;;;8.87;;
2257;SDS011;1136;51.574;7.706;2024-01-15T10:48:55;10.77;;;8.13;;
2257;SDS011;1136;51.574;7.706;2024-01-15T10:52:02;12.03;;;9.47;;
2257;SDS011;1136;51.574;7.706;2024-01-15T10:55:07;11.70;;;8.70;;
2257;SDS011;1136;51.574;7.706;2024-01-15T10:58:21;8.73;;;7.40;;
2257;SDS011;1136;51.574;7.706;2024-01-15T11:01:28;10.33;;;7.50;;
2257;SDS011;1136;51.574;7.706;2024-01-15T11:04:34;10.10;;;8.13;;
2257;SDS011;1136;51.574;7.706;2024-01-15T11:07:39;10.50;;;7.43;;
2257;SDS011;1136;51.574;7.706;2024-01-15T11:10:46;11.53;;;8.50;;
2257;SDS011;1136;51.574;7.706;2024-01-15T11:13:54;11.97;;;9.50;;
2257;SDS011;1136;51.574;7.706;2024-01-15T11:16:58;13.03;;;9.23;;
2257;SDS011;1136;51.574;7.706;2024-01-15T11:20:05;14.03;;;8.60;;
2257;SDS011;1136;51.574;7.706;2024-01-15T11:23:09;10.80;;;8.70;;
2257;SDS011;1136;51.574;7.706;2024-01-15T11:29:40;15.53;;;9.50;;
2257;SDS011;1136;51.574;7.706;2024-01-15T11:32:45;13.00;;;8.23;;
2257;SDS011;1136;51.574;7.706;2024-01-15T11:35:50;12.93;;;9.53;;
2257;SDS011;1136;51.574;7.706;2024-01-15T11:38:55;13.27;;;9.63;;
2257;SDS011;1136;51.574;7.706;2024-01-15T11:42:03;15.90;;;11.47;;
2257;SDS011;1136;51.574;7.706;2024-01-15T11:45:08;14.70;;;10.23;;
2257;SDS011;1136;51.574;7.706;2024-01-15T11:51:18;12.63;;;8.73;;
2257;SDS011;1136;51.574;7.706;2024-01-15T11:54:22;14.87;;;10.33;;
2257;SDS011;1136;51.574;7.706;2024-01-15T11:57:33;12.73;;;9.00;;
2257;SDS011;1136;51.574;7.706;2024-01-15T12:00:44;10.20;;;8.53;;
2257;SDS011;1136;51.574;7.706;2024-01-15T12:03:49;13.93;;;11.03;;
2257;SDS011;1136;51.574;7.706;2024-01-15T12:06:54;11.03;;;8.20;;
2257;SDS011;1136;51.574;7.706;2024-01-15T12:09:58;10.83;;;8.33;;
2257;SDS011;1136;51.574;7.706;2024-01-15T12:16:20;9.40;;;6.40;;
2257;SDS011;1136;51.574;7.706;2024-01-15T12:19:24;7.13;;;6.43;;
2257;SDS011;1136;51.574;7.706;2024-01-15T12:22:28;8.70;;;6.77;;
2257;SDS011;1136;51.574;7.706;2024-01-15T12:25:42;9.43;;;6.43;;
2257;SDS011;1136;51.574;7.706;2024-01-15T12:28:46;15.83;;;7.30;;
2257;SDS011;1136;51.574;7.706;2024-01-15T12:31:50;11.80;;;6.97;;
2257;SDS011;1136;51.574;7.706;2024-01-15T12:34:56;11.57;;;6.60;;
2257;SDS011;1136;51.574;7.706;2024-01-15T12:38:06;6.73;;;5.20;;
2257;SDS011;1136;51.574;7.706;2024-01-15T12:41:11;10.43;;;5.63;;
2257;SDS011;1136;51.574;7.706;2024-01-15T12:44:15;8.27;;;5.37;;
2257;SDS011;1136;51.574;7.706;2024-01-15T12:47:19;5.73;;;5.03;;
2257;SDS011;1136;51.574;7.706;2024-01-15T12:50:24;5.40;;;4.90;;
2257;SDS011;1136;51.574;7.706;2024-01-15T12:53:29;8.60;;;6.40;;
2257;SDS011;1136;51.574;7.706;2024-01-15T12:56:33;11.90;;;6.90;;
2257;SDS011;1136;51.574;7.706;2024-01-15T12:59:38;6.67;;;6.00;;
2257;SDS011;1136;51.574;7.706;2024-01-15T13:02:42;8.37;;;7.03;;
2257;SDS011;1136;51.574;7.706;2024-01-15T13:05:48;12.73;;;7.73;;
2257;SDS011;1136;51.574;7.706;2024-01-15T13:08:52;12.60;;;8.30;;
2257;SDS011;1136;51.574;7.706;2024-01-15T13:11:56;10.13;;;8.17;;
2257;SDS011;1136;51.574;7.706;2024-01-15T13:15:01;11.10;;;8.00;;
2257;SDS011;1136;51.574;7.706;2024-01-15T13:18:07;11.27;;;8.80;;
2257;SDS011;1136;51.574;7.706;2024-01-15T13:21:13;12.67;;;8.73;;
2257;SDS011;1136;51.574;7.706;2024-01-15T13:24:17;10.30;;;8.07;;
2257;SDS011;1136;51.574;7.706;2024-01-15T13:27:21;11.60;;;8.67;;
2257;SDS011;1136;51.574;7.706;2024-01-15T13:30:25;13.03;;;7.83;;
2257;SDS011;1136;51.574;7.706;2024-01-15T13:33:31;10.47;;;7.67;;
2257;SDS011;1136;51.574;7.706;2024-01-15T13:36:36;8.80;;;6.00;;
2257;SDS011;1136;51.574;7.706;2024-01-15T13:39:43;14.50;;;7.37;;
2257;SDS011;1136;51.574;7.706;2024-01-15T13:42:47;9.97;;;5.87;;
2257;SDS011;1136;51.574;7.706;2024-01-15T13:45:56;8.53;;;4.67;;
2257;SDS011;1136;51.574;7.706;2024-01-15T13:49:01;5.83;;;4.50;;
2257;SDS011;1136;51.574;7.706;2024-01-15T13:52:06;3.73;;;3.40;;
2257;SDS011;1136;51.574;7.706;2024-01-15T13:55:10;5.43;;;3.90;;
2257;SDS011;1136;51.574;7.706;2024-01-15T13:58:14;5.10;;;3.73;;
2257;SDS011;1136;51.574;7.706;2024-01-15T14:01:19;4.20;;;3.80;;
2257;SDS011;1136;51.574;7.706;2024-01-15T14:04:23;3.80;;;3.50;;
2257;SDS011;1136;51.574;7.706;2024-01-15T14:07:28;4.30;;;3.20;;
2257;SDS011;1136;51.574;7.706;2024-01-15T14:10:32;5.53;;;4.10;;
2257;SDS011;1136;51.574;7.706;2024-01-15T14:13:36;4.30;;;3.73;;
2257;SDS011;1136;51.574;7.706;2024-01-15T14:16:41;7.70;;;2.93;;
2257;SDS011;1136;51.574;7.706;2024-01-15T14:19:46;4.30;;;2.70;;
2257;SDS011;1136;51.574;7.706;2024-01-15T14:22:50;3.10;;;2.80;;
2257;SDS011;1136;51.574;7.706;2024-01-15T14:25:54;3.17;;;2.90;;
2257;SDS011;1136;51.574;7.706;2024-01-15T14:28:59;2.97;;;2.13;;
2257;SDS011;1136;51.574;7.706;2024-01-15T14:32:03;5.87;;;2.00;;
2257;SDS011;1136;51.574;7.706;2024-01-15T14:35:08;2.30;;;2.10;;
2257;SDS011;1136;51.574;7.706;2024-01-15T14:38:14;2.97;;;2.67;;
2257;SDS011;1136;51.574;7.706;2024-01-15T14:41:18;3.00;;;2.60;;
2257;SDS011;1136;51.574;7.706;2024-01-15T14:44:22;6.17;;;2.80;;
2257;SDS011;1136;51.574;7.706;2024-01-15T14:47:28;3.10;;;2.90;;
2257;SDS011;1136;51.574;7.706;2024-01-15T14:50:32;3.13;;;2.93;;
2257;SDS011;1136;51.574;7.706;2024-01-15T14:53:37;4.70;;;4.10;;
2257;SDS011;1136;51.574;7.706;2024-01-15T14:56:40;3.97;;;3.63;;
2257;SDS011;1136;51.574;7.706;2024-01-15T14:59:45;3.90;;;3.60;;
2257;SDS011;1136;51.574;7.706;2024-01-15T15:02:49;3.20;;;3.00;;
2257;SDS011;1136;51.574;7.706;2024-01-15T15:05:53;3.20;;;3.00;;
2257;SDS011;1136;51.574;7.706;2024-01-15T15:08:57;2.53;;;2.33;;
2257;SDS011;1136;51.574;7.706;2024-01-15T15:12:07;5.87;;;3.03;;
2257;SDS011;1136;51.574;7.706;2024-01-15T15:15:13;4.10;;;2.47;;
2257;SDS011;1136;51.574;7.706;2024-01-15T15:18:25;5.23;;;2.70;;
2257;SDS011;1136;51.574;7.706;2024-01-15T15:21:30;6.20;;;2.20;;
2257;SDS011;1136;51.574;7.706;2024-01-15T15:24:34;3.53;;;2.57;;
2257;SDS011;1136;51.574;7.706;2024-01-15T15:27:38;5.10;;;2.37;;
2257;SDS011;1136;51.574;7.706;2024-01-15T15:30:43;8.70;;;2.50;;
2257;SDS011;1136;51.574;7.706;2024-01-15T15:33:48;4.47;;;2.50;;
2257;SDS011;1136;51.574;7.706;2024-01-15T15:36:53;8.70;;;3.57;;
2257;SDS011;1136;51.574;7.706;2024-01-15T15:39:57;2.33;;;2.23;;
2257;SDS011;1136;51.574;7.706;2024-01-15T15:43:03;4.60;;;3.33;;
2257;SDS011;1136;51.574;7.706;2024-01-15T15:46:07;7.17;;;3.60;;
2257;SDS011;1136;51.574;7.706;2024-01-15T15:49:12;5.60;;;3.40;;
2257;SDS011;1136;51.574;7.706;2024-01-15T15:52:16;4.47;;;3.97;;
2257;SDS011;1136;51.574;7.706;2024-01-15T15:55:23;4.80;;;3.10;;
2257;SDS011;1136;51.574;7.706;2024-01-15T15:58:27;5.73;;;3.40;;
2257;SDS011;1136;51.574;7.706;2024-01-15T16:01:31;8.30;;;3.63;;
2257;SDS011;1136;51.574;7.706;2024-01-15T16:04:36;7.10;;;3.90;;
2257;SDS011;1136;51.574;7.706;2024-01-15T16:07:40;4.90;;;3.60;;
2257;SDS011;1136;51.574;7.706;2024-01-15T16:10:45;5.70;;;3.60;;
2257;SDS011;1136;51.574;7.706;2024-01-15T16:13:50;5.60;;;3.30;;
2257;SDS011;1136;51.574;7.706;2024-01-15T16:16:54;3.37;;;3.07;;
2257;SDS011;1136;51.574;7.706;2024-01-15T16:20:21;2.70;;;2.50;;
2257;SDS011;1136;51.574;7.706;2024-01-15T16:23:45;8.13;;;2.70;;
2257;SDS011;1136;51.574;7.706;2024-01-15T16:27:09;4.80;;;2.20;;
2257;SDS011;1136;51.574;7.706;2024-01-15T16:30:19;5.80;;;2.33;;
2257;SDS011;1136;51.574;7.706;2024-01-15T16:33:36;5.80;;;2.63;;
2257;SDS011;1136;51.574;7.706;2024-01-15T16:36:40;7.57;;;3.10;;
2257;SDS011;1136;51.574;7.706;2024-01-15T16:39:44;6.83;;;3.07;;
2257;SDS011;1136;51.574;7.706;2024-01-15T16:42:48;4.57;;;3.50;;
2257;SDS011;1136;51.574;7.706;2024-01-15T16:45:52;2.67;;;2.47;;
2257;SDS011;1136;51.574;7.706;2024-01-15T16:48:57;5.53;;;2.47;;
2257;SDS011;1136;51.574;7.706;2024-01-15T16:52:01;4.00;;;2.40;;
2257;SDS011;1136;51.574;7.706;2024-01-15T16:55:10;7.40;;;3.10;;
2257;SDS011;1136;51.574;7.706;2024-01-15T16:58:14;6.90;;;3.93;;
2257;SDS011;1136;51.574;7.706;2024-01-15T17:01:21;4.20;;;3.07;;
2257;SDS011;1136;51.574;7.706;2024-01-15T17:04:29;11.60;;;4.00;;
2257;SDS011;1136;51.574;7.706;2024-01-15T17:07:34;13.20;;;4.27;;
2257;SDS011;1136;51.574;7.706;2024-01-15T17:10:38;9.10;;;4.47;;
2257;SDS011;1136;51.574;7.706;2024-01-15T17:13:44;7.10;;;4.60;;
2257;SDS011;1136;51.574;7.706;2024-01-15T17:16:49;5.10;;;4.57;;
2257;SDS011;1136;51.574;7.706;2024-01-15T17:19:57;6.93;;;5.43;;
2257;SDS011;1136;51.574;7.706;2024-01-15T17:23:03;7.67;;;5.47;;
2257;SDS011;1136;51.574;7.706;2024-01-15T17:26:07;6.90;;;6.20;;
2257;SDS011;1136;51.574;7.706;2024-01-15T17:29:12;9.40;;;6.10;;
2257;SDS011;1136;51.574;7.706;2024-01-15T17:32:17;10.43;;;7.30;;
2257;SDS011;1136;51.574;7.706;2024-01-15T17:35:21;8.40;;;7.57;;
2257;SDS011;1136;51.574;7.706;2024-01-15T17:38:25;8.40;;;7.50;;
2257;SDS011;1136;51.574;7.706;2024-01-15T17:41:31;8.50;;;7.53;;
2257;SDS011;1136;51.574;7.706;2024-01-15T17:44:38;11.57;;;8.67;;
2257;SDS011;1136;51.574;7.706;2024-01-15T17:47:42;10.07;;;8.57;;
2257;SDS011;1136;51.574;7.706;2024-01-15T17:50:47;10.90;;;8.57;;
2257;SDS011;1136;51.574;7.706;2024-01-15T17:53:51;26.47;;;9.77;;
2257;SDS011;1136;51.574;7.706;2024-01-15T17:56:56;19.17;;;9.53;;
2257;SDS011;1136;51.574;7.706;2024-01-15T18:00:00;16.50;;;9.97;;
2257;SDS011;1136;51.574;7.706;2024-01-15T18:03:05;16.53;;;11.10;;
2257;SDS011;1136;51.574;7.706;2024-01-15T18:06:09;19.53;;;11.03;;
2257;SDS011;1136;51.574;7.706;2024-01-15T18:09:16;16.10;;;11.30;;
2257;SDS011;1136;51.574;7.706;2024-01-15T18:12:26;21.20;;;10.70;;
2257;SDS011;1136;51.574;7.706;2024-01-15T18:15:31;15.83;;;11.50;;
2257;SDS011;1136;51.574;7.706;2024-01-15T18:18:35;22.70;;;10.87;;
2257;SDS011;1136;51.574;7.706;2024-01-15T18:21:41;18.27;;;10.80;;
2257;SDS011;1136;51.574;7.706;2024-01-15T18:24:45;18.57;;;10.10;;
2257;SDS011;1136;51.574;7.706;2024-01-15T18:27:50;13.63;;;10.03;;
2257;SDS011;1136;51.574;7.706;2024-01-15T18:30:54;14.17;;;9.47;;
2257;SDS011;1136;51.574;7.706;2024-01-15T18:33:59;14.00;;;9.00;;
2257;SDS011;1136;51.574;7.706;2024-01-15T18:37:03;13.63;;;10.10;;
2257;SDS011;1136;51.574;7.706;2024-01-15T18:40:08;13.30;;;9.60;;
2257;SDS011;1136;51.574;7.706;2024-01-15T18:43:13;11.10;;;8.87;;
2257;SDS011;1136;51.574;7.706;2024-01-15T18:46:18;12.50;;;8.53;;
2257;SDS011;1136;51.574;7.706;2024-01-15T18:49:22;12.70;;;8.60;;
2257;SDS011;1136;51.574;7.706;2024-01-15T18:52:27;9.83;;;7.77;;
2257;SDS011;1136;51.574;7.706;2024-01-15T18:55:31;11.97;;;7.83;;
2257;SDS011;1136;51.574;7.706;2024-01-15T18:58:35;9.23;;;6.47;;